Ha Sklenar — C6CL6 — position and weather

sailwx.info

Track history (hours):
 
Tides and Currents Weather Stations Pressure Air Temp Water Temp Dewpoint Dewpoint Depression Visibility Wind Speed Wind Dir Waves Ship Positions

Ha Sklenar

Last reported at 2017-Dec-11 12:00 UTC. Time now 2017-Dec-12 14:20 UTC.
Position N 24°00' W 087°18'.

Type: Cargo ship. MMSI: 308397000.

Wind from 350 at 12 knots

Barometer 1026.0 mb
Air temperature 20.0 ° C
Visibility: greater than 5.4 NM
Dewpoint 16.7 ° C
Water temperature 25.0 ° C

Date/timePositionNaut miles runAvg speedWind from/ knotsBaromVisibWave heightAir tempDewpointWater temp
2017-Dec-11 12:00N 24°00' W 087°18'   350 / 121026.0 5.4 20.016.725.0
2017-Dec-03 09:01N 20°39' W 086°55'010.6
2017-Dec-03 09:01N 20°38' W 086°55'510.8
2017-Dec-03 08:31N 20°36' W 087°01'510.3
2017-Dec-03 08:01N 20°34' W 087°06'2 2.9
2017-Dec-03 07:22N 20°34' W 087°08'0 0.0
2017-Dec-03 07:01N 20°34' W 087°08'0 0.0
2017-Dec-03 06:22N 20°34' W 087°08'0 0.0
2017-Dec-03 05:58N 20°34' W 087°08'0 0.0
2017-Dec-03 05:31N 20°34' W 087°08'0 0.0
2017-Dec-03 05:01N 20°34' W 087°08'0 0.0
2017-Dec-03 04:31N 20°34' W 087°08'0 0.0
2017-Dec-03 04:01N 20°34' W 087°08'0 0.0
2017-Dec-03 03:28N 20°34' W 087°08'0 0.0
2017-Dec-03 02:58N 20°34' W 087°08'0 0.0
2017-Dec-03 02:25N 20°34' W 087°08'0 0.0
2017-Dec-03 01:58N 20°34' W 087°08'0 0.0
2017-Dec-03 01:28N 20°34' W 087°08'0 0.0
2017-Dec-03 01:01N 20°34' W 087°08'0 0.0
2017-Dec-03 00:31N 20°34' W 087°08'0 0.0
2017-Dec-03 00:01N 20°34' W 087°08'0 0.0
2017-Dec-02 23:31N 20°34' W 087°08'0 0.0
2017-Dec-02 22:58N 20°34' W 087°08'0 0.0
2017-Dec-02 22:31N 20°34' W 087°08'0 0.0
2017-Dec-02 22:01N 20°34' W 087°08'0 0.0
2017-Dec-02 21:19N 20°34' W 087°08'0 0.0
2017-Dec-02 21:01N 20°34' W 087°08'0 0.0
2017-Dec-02 20:31N 20°34' W 087°08'0 0.0
2017-Dec-02 20:01N 20°34' W 087°08'0 0.0
2017-Dec-02 19:31N 20°34' W 087°08'0 0.0
2017-Dec-02 19:01N 20°34' W 087°08'0 0.0
2017-Dec-02 18:28N 20°34' W 087°08'0 0.0
2017-Dec-02 18:01N 20°34' W 087°08'0 0.0
2017-Dec-02 17:31N 20°34' W 087°08'0 0.0
2017-Dec-02 16:58N 20°34' W 087°08'0 0.0
2017-Dec-02 16:28N 20°34' W 087°08'0 0.0
2017-Dec-02 15:58N 20°34' W 087°08'0 0.0
2017-Dec-02 15:19N 20°34' W 087°08'0 0.0
2017-Dec-02 15:01N 20°34' W 087°08'0 0.0
2017-Dec-02 14:31N 20°34' W 087°08'0 0.0
2017-Dec-02 13:58N 20°34' W 087°08'0 0.1
2017-Dec-02 13:30N 20°34' W 087°08'1 1.5
2017-Dec-02 13:00N 20°34' W 087°07'2 3.1
2017-Dec-02 12:30N 20°35' W 087°05'2 5.0
2017-Dec-02 12:00N 20°37' W 087°03'3 6.1
2017-Dec-02 11:30N 20°38' W 087°01'3 6.0
2017-Dec-02 11:00N 20°40' W 086°58'3 5.7
2017-Dec-02 10:30N 20°42' W 086°56'166 7.4
2017-Dec-01 12:00N 23°12' W 088°12'   060 / 171018.0 5.4 25.020.527.0
Track history (hours):
 
Tides and Currents Weather Stations Pressure Air Temp Water Temp Dewpoint Dewpoint Depression Visibility Wind Speed Wind Dir Waves Ship Positions

Ha Sklenar

Last reported at 2017-Dec-11 12:00 UTC. Time now 2017-Dec-12 14:20 UTC.
Position N 24°00' W 087°18'.

Type: Cargo ship. MMSI: 308397000.

Wind from 350 at 12 knots

Barometer 1026.0 mb
Air temperature 20.0 ° C
Visibility: greater than 5.4 NM
Dewpoint 16.7 ° C
Water temperature 25.0 ° C

Date/timePositionNaut miles runAvg speedWind from/ knotsBaromVisibWave heightAir tempDewpointWater temp
2017-Dec-11 12:00N 24°00' W 087°18'   350 / 121026.0 5.4 20.016.725.0
2017-Dec-03 09:01N 20°39' W 086°55'010.6
2017-Dec-03 09:01N 20°38' W 086°55'510.8
2017-Dec-03 08:31N 20°36' W 087°01'510.3
2017-Dec-03 08:01N 20°34' W 087°06'2 2.9
2017-Dec-03 07:22N 20°34' W 087°08'0 0.0
2017-Dec-03 07:01N 20°34' W 087°08'0 0.0
2017-Dec-03 06:22N 20°34' W 087°08'0 0.0
2017-Dec-03 05:58N 20°34' W 087°08'0 0.0
2017-Dec-03 05:31N 20°34' W 087°08'0 0.0
2017-Dec-03 05:01N 20°34' W 087°08'0 0.0
2017-Dec-03 04:31N 20°34' W 087°08'0 0.0
2017-Dec-03 04:01N 20°34' W 087°08'0 0.0
2017-Dec-03 03:28N 20°34' W 087°08'0 0.0
2017-Dec-03 02:58N 20°34' W 087°08'0 0.0
2017-Dec-03 02:25N 20°34' W 087°08'0 0.0
2017-Dec-03 01:58N 20°34' W 087°08'0 0.0
2017-Dec-03 01:28N 20°34' W 087°08'0 0.0
2017-Dec-03 01:01N 20°34' W 087°08'0 0.0
2017-Dec-03 00:31N 20°34' W 087°08'0 0.0
2017-Dec-03 00:01N 20°34' W 087°08'0 0.0
2017-Dec-02 23:31N 20°34' W 087°08'0 0.0
2017-Dec-02 22:58N 20°34' W 087°08'0 0.0
2017-Dec-02 22:31N 20°34' W 087°08'0 0.0
2017-Dec-02 22:01N 20°34' W 087°08'0 0.0
2017-Dec-02 21:19N 20°34' W 087°08'0 0.0
2017-Dec-02 21:01N 20°34' W 087°08'0 0.0
2017-Dec-02 20:31N 20°34' W 087°08'0 0.0
2017-Dec-02 20:01N 20°34' W 087°08'0 0.0
2017-Dec-02 19:31N 20°34' W 087°08'0 0.0
2017-Dec-02 19:01N 20°34' W 087°08'0 0.0
2017-Dec-02 18:28N 20°34' W 087°08'0 0.0
2017-Dec-02 18:01N 20°34' W 087°08'0 0.0
2017-Dec-02 17:31N 20°34' W 087°08'0 0.0
2017-Dec-02 16:58N 20°34' W 087°08'0 0.0
2017-Dec-02 16:28N 20°34' W 087°08'0 0.0
2017-Dec-02 15:58N 20°34' W 087°08'0 0.0
2017-Dec-02 15:19N 20°34' W 087°08'0 0.0
2017-Dec-02 15:01N 20°34' W 087°08'0 0.0
2017-Dec-02 14:31N 20°34' W 087°08'0 0.0
2017-Dec-02 13:58N 20°34' W 087°08'0 0.1
2017-Dec-02 13:30N 20°34' W 087°08'1 1.5
2017-Dec-02 13:00N 20°34' W 087°07'2 3.1
2017-Dec-02 12:30N 20°35' W 087°05'2 5.0
2017-Dec-02 12:00N 20°37' W 087°03'3 6.1
2017-Dec-02 11:30N 20°38' W 087°01'3 6.0
2017-Dec-02 11:00N 20°40' W 086°58'3 5.7
2017-Dec-02 10:30N 20°42' W 086°56'166 7.4
2017-Dec-01 12:00N 23°12' W 088°12'   060 / 171018.0 5.4 25.020.527.0

Dump ship's entire track history